createdAt,value
2023-04-12T00:01:08.576Z,2.40
2023-04-12T00:06:10.473Z,2.15
2023-04-12T00:11:12.633Z,2.30
2023-04-12T00:16:15.870Z,2.42
2023-04-12T00:21:19.563Z,2.55
2023-04-12T00:26:21.798Z,2.70
2023-04-12T00:31:24.514Z,2.25
2023-04-12T00:36:27.128Z,2.50
2023-04-12T00:41:28.778Z,2.55
2023-04-12T00:46:32.401Z,2.92
2023-04-12T00:51:34.530Z,2.50
2023-04-12T00:56:37.824Z,2.83
2023-04-12T01:01:41.364Z,2.92
2023-04-12T01:07:27.852Z,2.92
2023-04-12T01:12:38.045Z,3.42
2023-04-12T01:17:58.153Z,2.90
2023-04-12T01:23:28.459Z,2.58
2023-04-12T01:28:34.324Z,2.85
2023-04-12T01:33:40.820Z,3.10
2023-04-12T01:38:43.749Z,2.60
2023-04-12T01:43:48.167Z,2.50
2023-04-12T01:48:52.641Z,4.15
2023-04-12T01:54:00.455Z,3.75
2023-04-12T01:59:04.217Z,3.58
2023-04-12T02:04:07.864Z,3.90
2023-04-12T02:09:10.308Z,3.78
2023-04-12T02:14:12.108Z,4.13
2023-04-12T02:19:14.126Z,3.72
2023-04-12T02:24:17.483Z,4.30
2023-04-12T02:29:19.648Z,4.80
2023-04-12T02:34:23.080Z,4.03
2023-04-12T02:39:32.532Z,4.60
2023-04-12T02:44:35.120Z,4.13
2023-04-12T02:49:45.941Z,4.47
2023-04-12T02:54:51.624Z,4.22
2023-04-12T02:59:54.426Z,4.40
2023-04-12T03:04:59.786Z,4.35
2023-04-12T03:10:13.909Z,4.15
2023-04-12T03:15:24.066Z,4.88
2023-04-12T03:20:28.405Z,4.13
2023-04-12T03:25:48.294Z,4.28
2023-04-12T03:31:10.717Z,5.15
2023-04-12T03:36:18.062Z,4.43
2023-04-12T03:41:25.584Z,4.88
2023-04-12T03:46:27.458Z,4.55
2023-04-12T03:51:33.867Z,3.92
2023-04-12T03:56:38.760Z,3.92
2023-04-12T04:01:46.298Z,4.30
2023-04-12T04:06:48.786Z,4.93
2023-04-12T04:11:51.714Z,3.75
2023-04-12T04:16:55.610Z,3.97
2023-04-12T04:21:57.997Z,3.83
2023-04-12T04:27:01.347Z,3.50
2023-04-12T04:32:03.364Z,3.58
2023-04-12T04:37:05.284Z,4.53
2023-04-12T04:42:07.152Z,3.83
2023-04-12T04:47:22.312Z,3.92
2023-04-12T04:52:24.465Z,3.10
2023-04-12T04:57:28.767Z,3.40
2023-04-12T05:02:32.006Z,3.13
2023-04-12T05:07:36.289Z,3.15
2023-04-12T05:12:38.094Z,3.13
2023-04-12T05:17:39.881Z,2.97
2023-04-12T05:22:41.638Z,3.67
2023-04-12T05:27:44.935Z,3.35
2023-04-12T05:32:50.476Z,2.72
2023-04-12T05:37:53.648Z,2.50
2023-04-12T05:42:56.014Z,2.08
2023-04-12T05:47:58.595Z,2.10
2023-04-12T05:53:01.960Z,2.60
2023-04-12T05:58:06.614Z,2.00
2023-04-12T06:03:10.466Z,2.10
2023-04-12T06:08:14.876Z,2.08
2023-04-12T06:13:17.206Z,1.83
2023-04-12T06:18:18.894Z,2.28
2023-04-12T06:23:21.112Z,2.13
2023-04-12T06:28:24.623Z,2.10
2023-04-12T06:33:27.812Z,1.70
2023-04-12T06:38:30.055Z,2.58
2023-04-12T06:43:31.765Z,2.40
2023-04-12T06:48:33.583Z,2.25
2023-04-12T06:53:35.987Z,2.70
2023-04-12T06:58:37.750Z,2.88
2023-04-12T07:03:39.812Z,2.72
2023-04-12T07:08:41.623Z,3.20
2023-04-12T07:13:45.170Z,3.40
2023-04-12T07:18:47.196Z,4.38
2023-04-12T07:23:51.290Z,3.33
2023-04-12T07:28:53.176Z,3.97
2023-04-12T07:33:54.884Z,3.80
2023-04-12T07:38:57.084Z,4.53
2023-04-12T07:43:58.903Z,3.90
2023-04-12T07:49:00.560Z,3.88
2023-04-12T07:54:02.817Z,4.22
2023-04-12T07:59:04.642Z,3.58
2023-04-12T08:04:07.185Z,3.80
2023-04-12T08:09:08.933Z,3.10
2023-04-12T08:14:12.165Z,2.83
2023-04-12T08:19:14.456Z,2.47
2023-04-12T08:24:16.290Z,1.50
2023-04-12T08:29:18.336Z,0.70
2023-04-12T08:34:22.381Z,0.75
2023-04-12T08:39:24.307Z,0.70
2023-04-12T08:44:36.601Z,0.80
2023-04-12T08:49:38.572Z,0.88
2023-04-12T08:54:40.185Z,0.90
2023-04-12T08:59:43.661Z,0.77
2023-04-12T09:04:49.942Z,0.80
2023-04-12T09:09:51.703Z,0.52
2023-04-12T09:15:12.659Z,0.70
2023-04-12T09:20:17.744Z,0.70
2023-04-12T09:25:36.267Z,0.80
2023-04-12T09:30:42.226Z,0.50
2023-04-12T09:35:44.048Z,0.73
2023-04-12T09:40:46.067Z,0.90
2023-04-12T09:45:48.698Z,0.70
2023-04-12T09:51:00.173Z,0.95
2023-04-12T09:56:08.403Z,0.68
2023-04-12T10:01:11.118Z,0.70
2023-04-12T10:06:13.161Z,0.70
2023-04-12T10:11:14.880Z,0.90
2023-04-12T10:16:17.088Z,0.85
2023-04-12T10:21:18.995Z,0.80
2023-04-12T10:26:21.013Z,0.90
2023-04-12T10:31:32.432Z,1.00
2023-04-12T10:36:53.541Z,1.23
2023-04-12T10:42:27.169Z,1.02
2023-04-12T10:47:55.832Z,1.13
2023-04-12T10:53:13.001Z,1.08
2023-04-12T10:58:49.799Z,1.40
2023-04-12T11:04:16.863Z,1.10
2023-04-12T11:09:45.165Z,1.08
2023-04-12T11:14:52.304Z,1.58
2023-04-12T11:20:01.452Z,2.00
2023-04-12T11:25:03.423Z,2.10
2023-04-12T11:30:05.853Z,1.90
2023-04-12T11:35:10.626Z,1.60
2023-04-12T11:40:14.557Z,1.65
2023-04-12T11:45:20.040Z,1.55
2023-04-12T11:50:32.626Z,1.75
2023-04-12T11:55:34.322Z,1.77
2023-04-12T12:00:36.376Z,1.08
2023-04-12T12:05:41.026Z,1.23
2023-04-12T12:10:59.900Z,1.75
2023-04-12T12:16:08.313Z,1.33
2023-04-12T12:21:13.313Z,1.50
2023-04-12T12:26:27.158Z,1.38
2023-04-12T12:31:29.138Z,1.55
2023-04-12T12:36:34.536Z,1.10
2023-04-12T12:41:37.196Z,1.73
2023-04-12T12:51:43.526Z,1.85
2023-04-12T12:56:46.169Z,1.30
2023-04-12T13:01:47.874Z,1.02
2023-04-12T13:06:49.663Z,1.10
2023-04-12T13:11:51.595Z,0.70
2023-04-12T13:16:54.127Z,1.00
2023-04-12T13:21:56.093Z,1.00
2023-04-12T13:26:58.351Z,1.10
2023-04-12T13:32:00.184Z,0.82
2023-04-12T13:37:02.002Z,0.98
2023-04-12T13:42:03.949Z,0.75
2023-04-12T13:47:05.716Z,0.90
2023-04-12T13:52:07.808Z,1.00
2023-04-12T13:57:10.324Z,1.30
2023-04-12T14:02:12.182Z,0.90
2023-04-12T14:07:13.977Z,1.10
2023-04-12T14:12:16.050Z,0.80
2023-04-12T14:17:17.946Z,0.80
2023-04-12T14:22:19.853Z,0.77
2023-04-12T14:27:21.688Z,1.23
2023-04-12T14:32:23.640Z,1.40
2023-04-12T14:37:25.474Z,0.88
2023-04-12T14:42:27.277Z,1.00
2023-04-12T14:47:28.956Z,1.20
2023-04-12T14:52:30.987Z,1.35
2023-04-12T14:57:34.949Z,1.35
2023-04-12T15:02:36.872Z,1.38
2023-04-12T15:07:38.963Z,1.48
2023-04-12T15:12:40.916Z,1.60
2023-04-12T15:17:42.968Z,1.20
2023-04-12T15:22:44.781Z,1.80
2023-04-12T15:27:46.586Z,1.80
2023-04-12T15:32:48.981Z,1.45
2023-04-12T15:37:50.962Z,1.98
2023-04-12T15:42:52.782Z,1.40
2023-04-12T15:47:59.476Z,1.50
2023-04-12T15:53:01.564Z,1.40
2023-04-12T15:58:03.386Z,1.00
2023-04-12T16:03:07.712Z,1.35
2023-04-12T16:08:10.992Z,1.23
2023-04-12T16:13:16.262Z,1.55
2023-04-12T16:18:18.115Z,1.15
2023-04-12T16:23:19.933Z,1.70
2023-04-12T16:28:22.708Z,1.27
2023-04-12T16:33:24.980Z,1.13
2023-04-12T16:38:26.886Z,1.13
2023-04-12T16:43:28.707Z,1.20
2023-04-12T16:48:31.080Z,1.30
2023-04-12T16:53:33.038Z,1.00
2023-04-12T16:58:34.825Z,1.38
2023-04-12T17:03:36.844Z,1.00
2023-04-12T17:08:38.726Z,1.20
2023-04-12T17:13:40.800Z,1.00
2023-04-12T17:18:43.601Z,1.02
2023-04-12T17:23:45.451Z,1.30
2023-04-12T17:28:47.287Z,1.08
2023-04-12T17:33:48.997Z,1.10
2023-04-12T17:38:50.706Z,1.52
2023-04-12T17:43:52.466Z,1.73
2023-04-12T17:48:54.196Z,1.63
2023-04-12T17:53:58.303Z,2.08
2023-04-12T17:59:02.131Z,1.92
2023-04-12T18:04:05.692Z,2.33
2023-04-12T18:09:10.909Z,1.90
2023-04-12T18:14:12.984Z,2.50
2023-04-12T18:19:16.835Z,2.13
2023-04-12T18:24:18.765Z,2.13
2023-04-12T18:29:20.977Z,1.70
2023-04-12T18:34:23.119Z,1.50
2023-04-12T18:39:24.984Z,1.50
2023-04-12T18:44:27.713Z,1.70
2023-04-12T18:49:30.430Z,1.50
2023-04-12T18:54:32.525Z,1.35
2023-04-12T18:59:34.366Z,1.77
2023-04-12T19:04:37.071Z,2.03
2023-04-12T19:09:38.893Z,1.80
2023-04-12T19:14:40.945Z,1.73
2023-04-12T19:19:43.661Z,2.10
2023-04-12T19:24:48.082Z,2.22
2023-04-12T19:29:51.746Z,2.10
2023-04-12T19:34:54.171Z,2.20
2023-04-12T19:39:56.285Z,1.83
2023-04-12T19:44:58.464Z,2.10
2023-04-12T19:50:01.063Z,2.20
2023-04-12T19:55:02.951Z,2.10
2023-04-12T20:00:12.801Z,1.73
2023-04-12T20:05:16.100Z,1.90
2023-04-12T20:10:18.028Z,2.30
2023-04-12T20:15:19.706Z,2.17
2023-04-12T20:20:21.560Z,1.80
2023-04-12T20:25:23.220Z,2.15
2023-04-12T20:30:26.280Z,2.30
2023-04-12T20:35:28.148Z,2.63
2023-04-12T20:40:30.367Z,2.78
2023-04-12T20:45:32.703Z,2.72
2023-04-12T20:50:34.450Z,3.20
2023-04-12T20:55:36.180Z,5.75
2023-04-12T21:00:38.759Z,7.63
2023-04-12T21:05:40.583Z,7.78
2023-04-12T21:10:42.844Z,6.63
2023-04-12T21:15:44.980Z,6.30
2023-04-12T21:20:50.445Z,6.22
2023-04-12T21:25:52.155Z,5.65
2023-04-12T21:30:55.220Z,4.70
2023-04-12T21:35:57.078Z,4.00
2023-04-12T21:41:05.646Z,3.60
2023-04-12T21:46:08.150Z,4.00
2023-04-12T21:51:10.029Z,3.70
2023-04-12T21:56:11.666Z,3.88
2023-04-12T22:01:14.155Z,4.88
2023-04-12T22:06:16.889Z,4.38
2023-04-12T22:11:18.577Z,4.95
2023-04-12T22:16:22.070Z,4.75
2023-04-12T22:21:23.858Z,7.50
2023-04-12T22:26:25.473Z,7.28
2023-04-12T22:31:27.562Z,7.15
2023-04-12T22:36:29.689Z,6.50
2023-04-12T22:41:33.138Z,5.00
2023-04-12T22:46:38.709Z,4.43
2023-04-12T22:51:40.445Z,3.63
2023-04-12T22:56:45.220Z,2.83
2023-04-12T23:01:47.430Z,2.55
2023-04-12T23:06:55.125Z,2.67
2023-04-12T23:11:56.812Z,2.10
2023-04-12T23:16:58.410Z,2.20
2023-04-12T23:22:00.095Z,2.10
2023-04-12T23:27:02.997Z,1.75
2023-04-12T23:32:04.881Z,1.73
2023-04-12T23:42:08.780Z,0.90
2023-04-12T23:47:10.483Z,0.98
2023-04-12T23:52:12.133Z,1.00
2023-04-12T23:57:14.945Z,1.00
